createdAt,value
2022-08-04T00:02:10.789Z,5.47
2022-08-04T00:04:44.037Z,4.57
2022-08-04T00:07:17.729Z,5.22
2022-08-04T00:09:58.198Z,3.67
2022-08-04T00:12:31.411Z,3.47
2022-08-04T00:15:01.933Z,5.57
2022-08-04T00:20:07.208Z,4.90
2022-08-04T00:22:35.617Z,4.15
2022-08-04T00:25:04.810Z,3.70
2022-08-04T00:27:33.113Z,3.93
2022-08-04T00:30:04.332Z,6.13
2022-08-04T00:32:34.479Z,5.05
2022-08-04T00:35:02.684Z,4.47
2022-08-04T00:37:29.621Z,3.65
2022-08-04T00:39:57.653Z,4.18
2022-08-04T00:42:58.294Z,3.13
2022-08-04T00:46:15.037Z,3.70
2022-08-04T00:49:05.661Z,4.25
2022-08-04T00:51:38.958Z,3.65
2022-08-04T00:54:24.690Z,3.58
2022-08-04T00:57:34.204Z,4.20
2022-08-04T01:00:06.322Z,4.10
2022-08-04T01:02:38.475Z,4.13
2022-08-04T01:05:18.164Z,3.78
2022-08-04T01:07:45.465Z,4.40
2022-08-04T01:10:52.602Z,4.07
2022-08-04T01:13:48.969Z,3.67
2022-08-04T01:16:21.405Z,3.70
2022-08-04T01:19:03.431Z,3.45
2022-08-04T01:21:30.822Z,4.35
2022-08-04T01:24:01.149Z,4.85
2022-08-04T01:26:42.476Z,4.50
2022-08-04T01:29:16.691Z,5.32
2022-08-04T01:31:53.029Z,4.30
2022-08-04T01:34:22.060Z,4.63
2022-08-04T01:37:06.607Z,4.13
2022-08-04T01:39:41.899Z,4.50
2022-08-04T01:42:10.710Z,5.13
2022-08-04T01:44:40.671Z,3.90
2022-08-04T01:47:09.330Z,5.25
2022-08-04T01:49:39.922Z,4.10
2022-08-04T01:52:09.373Z,4.30
2022-08-04T01:54:41.099Z,4.32
2022-08-04T01:57:37.978Z,4.32
2022-08-04T02:00:04.554Z,4.32
2022-08-04T02:02:32.059Z,4.10
2022-08-04T02:04:59.582Z,4.95
2022-08-04T02:07:57.005Z,4.80
2022-08-04T02:10:40.443Z,4.82
2022-08-04T02:13:25.129Z,4.38
2022-08-04T02:16:06.865Z,4.15
2022-08-04T02:18:46.095Z,3.97
2022-08-04T02:21:16.939Z,4.10
2022-08-04T02:23:46.907Z,3.60
2022-08-04T02:26:20.000Z,3.95
2022-08-04T02:29:11.074Z,4.00
2022-08-04T02:32:20.364Z,3.28
2022-08-04T02:35:26.966Z,3.55
2022-08-04T02:38:12.797Z,3.20
2022-08-04T02:40:41.296Z,3.70
2022-08-04T02:43:09.576Z,3.67
2022-08-04T02:45:38.237Z,3.33
2022-08-04T02:48:30.522Z,3.30
2022-08-04T02:53:28.571Z,3.67
2022-08-04T02:55:57.608Z,3.47
2022-08-04T02:58:31.671Z,3.25
2022-08-04T03:00:59.122Z,3.70
2022-08-04T03:03:35.640Z,3.60
2022-08-04T03:06:10.909Z,3.67
2022-08-04T03:08:38.213Z,4.00
2022-08-04T03:11:27.183Z,3.70
2022-08-04T03:14:14.914Z,3.90
2022-08-04T03:16:42.272Z,3.90
2022-08-04T03:19:30.207Z,3.72
2022-08-04T03:21:57.588Z,4.13
2022-08-04T03:24:25.078Z,3.92
2022-08-04T03:27:14.977Z,4.28
2022-08-04T03:30:09.331Z,4.25
2022-08-04T03:32:36.611Z,4.07
2022-08-04T03:35:04.099Z,3.85
2022-08-04T03:38:08.173Z,5.13
2022-08-04T03:40:36.323Z,4.18
2022-08-04T03:43:58.775Z,4.53
2022-08-04T03:46:18.444Z,3.60
2022-08-04T03:48:58.192Z,3.75
2022-08-04T03:51:52.906Z,4.07
2022-08-04T03:54:48.979Z,3.80
2022-08-04T03:57:40.311Z,3.97
2022-08-04T04:00:10.893Z,3.80
2022-08-04T04:02:49.304Z,3.67
2022-08-04T04:05:22.614Z,3.78
2022-08-04T04:08:01.762Z,3.88
2022-08-04T04:11:56.344Z,3.53
2022-08-04T04:14:58.463Z,3.15
2022-08-04T04:17:34.622Z,3.90
2022-08-04T04:20:19.557Z,3.15
2022-08-04T04:22:52.832Z,3.45
2022-08-04T04:25:41.037Z,4.25
2022-08-04T04:28:46.056Z,4.15
2022-08-04T04:33:44.170Z,3.78
2022-08-04T04:36:25.523Z,3.80
2022-08-04T04:39:04.251Z,3.58
2022-08-04T04:41:53.544Z,4.13
2022-08-04T04:44:39.404Z,3.88
2022-08-04T04:48:07.190Z,4.15
2022-08-04T04:50:30.043Z,3.78
2022-08-04T04:53:35.458Z,4.13
2022-08-04T04:56:40.601Z,3.85
2022-08-04T04:59:15.541Z,4.22
2022-08-04T05:01:42.901Z,4.10
2022-08-04T05:04:41.447Z,4.60
2022-08-04T05:07:23.808Z,4.40
2022-08-04T05:10:26.016Z,4.68
2022-08-04T05:14:36.654Z,4.20
2022-08-04T05:16:16.946Z,4.63
2022-08-04T05:18:54.696Z,5.10
2022-08-04T05:22:14.458Z,4.63
2022-08-04T05:24:47.868Z,3.83
2022-08-04T05:27:21.643Z,3.85
2022-08-04T05:30:03.285Z,4.35
2022-08-04T05:32:38.179Z,4.40
2022-08-04T05:35:09.983Z,4.20
2022-08-04T05:37:40.469Z,4.13
2022-08-04T05:40:09.415Z,4.05
2022-08-04T05:42:40.092Z,4.35
2022-08-04T05:45:09.172Z,4.45
2022-08-04T05:47:36.932Z,4.03
2022-08-04T05:50:05.167Z,4.93
2022-08-04T05:52:34.360Z,4.18
2022-08-04T05:55:02.688Z,4.80
2022-08-04T05:57:30.963Z,4.03
2022-08-04T06:00:14.821Z,4.30
2022-08-04T06:02:51.097Z,4.95
2022-08-04T06:05:19.339Z,4.45
2022-08-04T06:08:12.525Z,4.78
2022-08-04T06:10:38.892Z,4.10
2022-08-04T06:13:48.786Z,4.28
2022-08-04T06:16:01.985Z,4.75
2022-08-04T06:19:57.767Z,4.82
2022-08-04T06:21:21.138Z,4.97
2022-08-04T06:23:53.189Z,4.03
2022-08-04T06:26:29.646Z,4.20
2022-08-04T06:28:58.283Z,4.10
2022-08-04T06:32:28.233Z,4.35
2022-08-04T06:34:32.590Z,4.30
2022-08-04T06:37:00.400Z,3.95
2022-08-04T06:39:29.676Z,4.68
2022-08-04T06:42:22.143Z,3.97
2022-08-04T06:44:49.050Z,4.40
2022-08-04T06:47:19.602Z,4.15
2022-08-04T06:51:26.317Z,4.28
2022-08-04T06:52:38.089Z,3.88
2022-08-04T06:55:06.740Z,3.85
2022-08-04T06:57:35.354Z,4.78
2022-08-04T07:00:12.071Z,4.65
2022-08-04T07:02:45.027Z,3.80
2022-08-04T07:05:12.806Z,3.92
2022-08-04T07:07:57.152Z,3.70
2022-08-04T07:10:28.151Z,3.78
2022-08-04T07:13:00.134Z,3.80
2022-08-04T07:15:28.089Z,4.60
2022-08-04T07:18:00.218Z,3.90
2022-08-04T07:20:34.890Z,3.92
2022-08-04T07:23:07.881Z,3.58
2022-08-04T07:25:59.842Z,3.47
2022-08-04T07:28:25.632Z,3.38
2022-08-04T07:30:54.617Z,3.90
2022-08-04T07:33:22.149Z,3.80
2022-08-04T07:36:04.592Z,3.55
2022-08-04T07:38:48.235Z,2.92
2022-08-04T07:41:39.673Z,2.78
2022-08-04T07:44:08.239Z,2.72
2022-08-04T07:46:36.686Z,2.15
2022-08-04T07:49:04.558Z,2.80
2022-08-04T07:51:33.110Z,2.30
2022-08-04T07:54:00.630Z,2.40
2022-08-04T07:56:28.550Z,1.58
2022-08-04T07:58:56.373Z,1.73
2022-08-04T08:01:24.826Z,2.30
2022-08-04T08:03:54.069Z,1.70
2022-08-04T08:06:32.830Z,2.00
2022-08-04T08:09:12.516Z,1.80
2022-08-04T08:12:37.697Z,2.50
2022-08-04T08:14:35.491Z,2.28
2022-08-04T08:17:03.701Z,1.50
2022-08-04T08:19:35.028Z,1.75
2022-08-04T08:22:02.909Z,1.95
2022-08-04T08:24:32.169Z,2.10
2022-08-04T08:27:00.532Z,1.70
2022-08-04T08:29:29.603Z,2.10
2022-08-04T08:32:01.375Z,2.08
2022-08-04T08:34:33.405Z,1.92
2022-08-04T08:37:12.477Z,1.80
2022-08-04T08:39:55.892Z,2.05
2022-08-04T08:42:25.869Z,1.60
2022-08-04T08:45:23.129Z,2.33
2022-08-04T08:48:22.573Z,1.63
2022-08-04T08:51:24.968Z,1.90
2022-08-04T08:54:10.817Z,2.22
2022-08-04T08:56:52.147Z,1.70
2022-08-04T08:59:42.772Z,1.95
2022-08-04T09:02:40.929Z,1.77
2022-08-04T09:05:22.689Z,1.90
2022-08-04T09:07:50.079Z,1.92
2022-08-04T09:10:23.305Z,1.90
2022-08-04T09:13:21.307Z,2.00
2022-08-04T09:16:24.025Z,1.60
2022-08-04T09:18:51.396Z,1.73
2022-08-04T09:21:26.147Z,1.98
2022-08-04T09:24:36.680Z,1.70
2022-08-04T09:27:02.550Z,1.70
2022-08-04T09:29:51.518Z,1.55
2022-08-04T09:32:25.078Z,1.65
2022-08-04T09:35:08.400Z,1.70
2022-08-04T09:38:03.446Z,1.80
2022-08-04T09:40:59.346Z,1.67
2022-08-04T09:43:58.856Z,1.80
2022-08-04T09:46:53.467Z,1.65
2022-08-04T09:49:29.765Z,2.13
2022-08-04T09:52:21.051Z,1.63
2022-08-04T09:54:48.553Z,1.70
2022-08-04T09:57:34.670Z,1.70
2022-08-04T10:00:11.221Z,1.70
2022-08-04T10:02:44.376Z,1.75
2022-08-04T10:05:26.119Z,1.50
2022-08-04T10:08:16.518Z,1.55
2022-08-04T10:11:11.331Z,1.60
2022-08-04T10:13:50.242Z,1.70
2022-08-04T10:16:39.053Z,1.60
2022-08-04T10:19:21.838Z,1.70
2022-08-04T10:22:29.336Z,1.58
2022-08-04T10:26:04.336Z,1.80
2022-08-04T10:28:21.698Z,1.60
2022-08-04T10:31:10.230Z,1.45
2022-08-04T10:33:50.895Z,1.50
2022-08-04T10:36:23.931Z,1.90
2022-08-04T10:39:07.624Z,1.60
2022-08-04T10:42:05.132Z,1.65
2022-08-04T10:44:41.911Z,1.63
2022-08-04T10:47:21.183Z,1.60
2022-08-04T10:49:55.643Z,1.67
2022-08-04T10:52:34.164Z,1.55
2022-08-04T10:55:07.398Z,1.63
2022-08-04T10:57:41.804Z,1.60
2022-08-04T11:00:14.836Z,1.67
2022-08-04T11:02:53.877Z,1.55
2022-08-04T11:05:55.740Z,1.55
2022-08-04T11:08:27.838Z,1.45
2022-08-04T11:11:26.566Z,1.45
2022-08-04T11:14:05.236Z,1.52
2022-08-04T11:17:09.751Z,1.35
2022-08-04T11:20:12.619Z,1.50
2022-08-04T11:23:12.177Z,1.42
2022-08-04T11:25:51.619Z,1.58
2022-08-04T11:34:05.579Z,1.40
2022-08-04T11:36:36.802Z,1.60
2022-08-04T11:39:04.672Z,1.73
2022-08-04T11:41:42.257Z,2.03
2022-08-04T11:44:16.473Z,1.40
2022-08-04T11:46:50.633Z,1.70
2022-08-04T11:49:57.218Z,1.92
2022-08-04T11:52:28.267Z,1.38
2022-08-04T11:54:57.212Z,1.50
2022-08-04T11:57:35.290Z,1.85
2022-08-04T12:00:09.416Z,1.33
2022-08-04T12:03:20.889Z,1.70
2022-08-04T12:06:13.496Z,1.48
2022-08-04T12:08:52.813Z,1.60
2022-08-04T12:11:37.980Z,1.58
2022-08-04T12:14:19.972Z,1.50
2022-08-04T12:17:02.487Z,1.75
2022-08-04T12:20:04.491Z,1.50
2022-08-04T12:22:40.651Z,1.48
2022-08-04T12:25:19.998Z,1.58
2022-08-04T12:27:52.200Z,1.38
2022-08-04T12:30:57.470Z,1.60
2022-08-04T12:33:17.919Z,1.30
2022-08-04T12:36:19.208Z,1.40
2022-08-04T12:38:54.606Z,1.60
2022-08-04T12:41:26.062Z,1.95
2022-08-04T12:43:55.443Z,1.33
2022-08-04T12:46:27.952Z,1.85
2022-08-04T12:49:03.313Z,1.65
2022-08-04T12:52:07.383Z,1.52
2022-08-04T12:54:28.999Z,1.63
2022-08-04T12:56:59.673Z,1.45
2022-08-04T12:59:27.099Z,1.80
2022-08-04T13:02:07.841Z,1.55
2022-08-04T13:04:42.712Z,1.70
2022-08-04T13:07:22.579Z,1.70
2022-08-04T13:09:51.565Z,1.50
2022-08-04T13:12:31.854Z,1.55
2022-08-04T13:15:17.679Z,1.52
2022-08-04T13:17:57.444Z,1.35
2022-08-04T13:20:35.677Z,1.05
2022-08-04T13:23:09.252Z,1.38
2022-08-04T13:26:44.709Z,1.55
2022-08-04T13:28:34.494Z,1.70
2022-08-04T13:31:06.178Z,1.40
2022-08-04T13:33:36.164Z,1.50
2022-08-04T13:36:05.291Z,1.80
2022-08-04T13:38:33.940Z,1.38
2022-08-04T13:41:03.808Z,1.50
2022-08-04T13:44:18.949Z,1.35
2022-08-04T13:46:55.712Z,1.67
2022-08-04T13:49:38.049Z,1.33
2022-08-04T13:52:10.658Z,1.40
2022-08-04T13:54:44.172Z,1.50
2022-08-04T13:57:14.511Z,1.20
2022-08-04T13:59:48.003Z,1.30
2022-08-04T14:02:24.472Z,1.80
2022-08-04T14:04:57.481Z,1.52
2022-08-04T14:07:27.846Z,1.70
2022-08-04T14:10:03.055Z,1.60
2022-08-04T14:12:38.132Z,1.30
2022-08-04T14:16:02.077Z,1.20
2022-08-04T14:21:05.930Z,1.50
2022-08-04T14:23:49.822Z,1.52
2022-08-04T14:26:32.860Z,1.48
2022-08-04T14:29:26.232Z,1.50
2022-08-04T14:32:04.414Z,1.35
2022-08-04T14:34:41.336Z,1.67
2022-08-04T14:37:18.242Z,1.48
2022-08-04T14:40:17.469Z,1.42
2022-08-04T14:42:54.297Z,1.60
2022-08-04T14:45:54.589Z,1.92
2022-08-04T14:48:22.902Z,1.27
2022-08-04T14:50:51.206Z,1.42
2022-08-04T14:53:21.906Z,1.48
2022-08-04T14:55:53.887Z,1.40
2022-08-04T14:58:34.309Z,1.20
2022-08-04T15:01:10.275Z,1.50
2022-08-04T15:03:51.030Z,1.42
2022-08-04T15:06:23.284Z,1.50
2022-08-04T15:08:52.536Z,1.45
2022-08-04T15:11:23.141Z,1.60
2022-08-04T15:13:52.272Z,1.25
2022-08-04T15:16:20.453Z,1.50
2022-08-04T15:18:51.093Z,1.20
2022-08-04T15:21:22.211Z,1.48
2022-08-04T15:23:50.622Z,1.40
2022-08-04T15:26:28.845Z,1.25
2022-08-04T15:29:05.468Z,1.30
2022-08-04T15:32:04.786Z,1.40
2022-08-04T15:34:26.346Z,1.55
2022-08-04T15:36:58.054Z,1.33
2022-08-04T15:39:31.566Z,1.35
2022-08-04T15:42:23.154Z,1.50
2022-08-04T15:45:14.255Z,1.17
2022-08-04T15:47:41.479Z,1.40
2022-08-04T15:50:28.244Z,1.40
2022-08-04T15:53:01.176Z,1.60
2022-08-04T15:55:39.689Z,1.63
2022-08-04T15:58:07.676Z,1.30
2022-08-04T16:00:50.372Z,1.60
2022-08-04T16:03:57.965Z,1.45
2022-08-04T16:07:10.946Z,1.45
2022-08-04T16:09:52.395Z,1.48
2022-08-04T16:13:30.693Z,1.63
2022-08-04T16:16:39.588Z,1.63
2022-08-04T16:19:56.310Z,1.50
2022-08-04T16:22:54.648Z,1.58
2022-08-04T16:25:44.297Z,1.33
2022-08-04T16:28:49.055Z,1.45
2022-08-04T16:31:16.418Z,1.30
2022-08-04T16:33:47.166Z,1.20
2022-08-04T16:36:16.771Z,1.52
2022-08-04T16:39:05.478Z,1.40
2022-08-04T16:41:40.701Z,1.50
2022-08-04T16:44:52.620Z,1.40
2022-08-04T16:47:49.529Z,1.30
2022-08-04T16:50:21.187Z,1.67
2022-08-04T16:52:53.068Z,1.40
2022-08-04T16:55:22.117Z,1.20
2022-08-04T16:57:55.671Z,1.43
2022-08-04T17:00:37.561Z,1.60
2022-08-04T17:03:06.562Z,1.20
2022-08-04T17:05:38.693Z,0.95
2022-08-04T17:10:55.607Z,1.85
2022-08-04T17:14:03.594Z,1.30
2022-08-04T17:16:18.401Z,1.83
2022-08-04T17:18:51.764Z,1.50
2022-08-04T17:21:25.539Z,1.38
2022-08-04T17:24:16.209Z,1.40
2022-08-04T17:26:51.854Z,1.30
2022-08-04T17:29:43.578Z,1.45
2022-08-04T17:32:21.195Z,1.48
2022-08-04T17:35:00.029Z,1.63
2022-08-04T17:37:52.057Z,1.30
2022-08-04T17:40:18.679Z,1.55
2022-08-04T17:44:03.053Z,1.48
2022-08-04T17:46:33.550Z,1.48
2022-08-04T17:49:07.104Z,1.67
2022-08-04T17:52:05.117Z,1.85
2022-08-04T17:54:38.882Z,1.60
2022-08-04T17:57:20.295Z,1.40
2022-08-04T18:02:33.264Z,1.92
2022-08-04T18:05:11.495Z,1.60
2022-08-04T18:08:35.550Z,1.67
2022-08-04T18:10:51.560Z,1.90
2022-08-04T18:13:25.152Z,2.08
2022-08-04T18:16:02.624Z,2.00
2022-08-04T18:18:30.315Z,2.15
2022-08-04T18:20:59.842Z,2.20
2022-08-04T18:23:31.933Z,1.77
2022-08-04T18:26:02.370Z,2.40
2022-08-04T18:28:33.531Z,3.38
2022-08-04T18:31:01.947Z,2.10
2022-08-04T18:33:39.598Z,2.25
2022-08-04T18:36:33.426Z,2.40
2022-08-04T18:38:58.781Z,2.10
2022-08-04T18:41:27.784Z,2.40
2022-08-04T18:43:56.715Z,4.88
2022-08-04T18:46:26.876Z,2.17
2022-08-04T18:48:54.438Z,2.03
2022-08-04T18:51:24.922Z,2.38
2022-08-04T18:53:58.734Z,1.98
2022-08-04T18:56:29.548Z,2.30
2022-08-04T18:59:10.197Z,1.98
2022-08-04T19:02:12.886Z,1.88
2022-08-04T19:04:33.362Z,2.15
2022-08-04T19:07:28.645Z,2.42
2022-08-04T19:09:54.028Z,2.00
2022-08-04T19:12:26.841Z,1.83
2022-08-04T19:15:08.873Z,2.10
2022-08-04T19:17:57.311Z,1.90
2022-08-04T19:20:28.131Z,1.90
2022-08-04T19:24:28.298Z,1.80
2022-08-04T19:26:02.548Z,2.33
2022-08-04T19:28:34.971Z,1.90
2022-08-04T19:31:07.022Z,1.92
2022-08-04T19:33:58.101Z,1.90
2022-08-04T19:36:27.885Z,1.52
2022-08-04T19:38:57.777Z,1.70
2022-08-04T19:41:26.433Z,1.70
2022-08-04T19:43:54.208Z,1.63
2022-08-04T19:46:24.987Z,2.20
2022-08-04T19:48:59.258Z,2.08
2022-08-04T19:51:29.217Z,1.88
2022-08-04T19:54:04.010Z,2.17
2022-08-04T19:59:23.068Z,2.10
2022-08-04T20:01:50.213Z,2.42
2022-08-04T20:04:17.627Z,3.25
2022-08-04T20:06:44.829Z,3.17
2022-08-04T20:09:24.599Z,3.05
2022-08-04T20:11:58.064Z,2.35
2022-08-04T20:14:32.281Z,1.90
2022-08-04T20:17:13.107Z,2.60
2022-08-04T20:19:51.338Z,2.15
2022-08-04T20:22:52.207Z,2.70
2022-08-04T20:25:18.343Z,2.42
2022-08-04T20:28:00.437Z,2.58
2022-08-04T20:30:29.570Z,2.72
2022-08-04T20:32:57.478Z,1.95
2022-08-04T20:35:26.822Z,2.88
2022-08-04T20:38:00.291Z,2.47
2022-08-04T20:40:28.704Z,2.08
2022-08-04T20:43:00.258Z,4.38
2022-08-04T20:45:56.505Z,2.83
2022-08-04T20:48:15.004Z,2.78
2022-08-04T20:50:45.256Z,2.83
2022-08-04T20:53:16.135Z,2.45
2022-08-04T20:55:54.807Z,2.50
2022-08-04T20:58:27.255Z,2.10
2022-08-04T21:00:55.518Z,2.45
2022-08-04T21:03:49.429Z,2.35
2022-08-04T21:06:10.320Z,2.10
2022-08-04T21:08:37.428Z,2.13
2022-08-04T21:11:06.833Z,1.83
2022-08-04T21:13:50.510Z,1.95
2022-08-04T21:16:53.572Z,2.38
2022-08-04T21:19:05.300Z,1.98
2022-08-04T21:21:43.656Z,1.75
2022-08-04T21:24:20.667Z,1.63
2022-08-04T21:26:56.534Z,1.95
2022-08-04T21:29:34.775Z,1.50
2022-08-04T21:32:07.527Z,1.90
2022-08-04T21:34:39.343Z,1.48
2022-08-04T21:37:09.281Z,1.58
2022-08-04T21:39:50.167Z,1.65
2022-08-04T21:42:42.199Z,1.40
2022-08-04T21:45:10.513Z,1.83
2022-08-04T21:47:46.746Z,1.80
2022-08-04T21:50:19.999Z,2.50
2022-08-04T21:52:48.511Z,2.10
2022-08-04T21:55:16.525Z,1.75
2022-08-04T21:57:43.482Z,2.85
2022-08-04T22:03:03.419Z,2.35
2022-08-04T22:05:32.795Z,1.90
2022-08-04T22:08:00.376Z,2.00
2022-08-04T22:10:32.645Z,2.20
2022-08-04T22:13:02.902Z,2.10
2022-08-04T22:16:03.848Z,2.65
2022-08-04T22:18:21.180Z,2.10
2022-08-04T22:20:51.766Z,2.60
2022-08-04T22:23:25.201Z,2.17
2022-08-04T22:25:55.598Z,2.13
2022-08-04T22:28:27.826Z,2.40
2022-08-04T22:30:55.813Z,2.17
2022-08-04T22:33:23.628Z,2.17
2022-08-04T22:36:13.246Z,1.90
2022-08-04T22:38:50.787Z,2.15
2022-08-04T22:41:21.775Z,2.20
2022-08-04T22:44:01.449Z,1.75
2022-08-04T22:46:32.751Z,2.00
2022-08-04T22:49:00.036Z,1.88
2022-08-04T22:51:27.475Z,1.80
2022-08-04T22:53:54.430Z,1.70
2022-08-04T22:56:38.394Z,2.25
2022-08-04T22:59:06.654Z,2.03
2022-08-04T23:01:57.888Z,2.15
2022-08-04T23:04:24.974Z,2.03
2022-08-04T23:06:54.452Z,1.75
2022-08-04T23:09:27.059Z,2.05
2022-08-04T23:12:25.037Z,2.10
2022-08-04T23:14:54.867Z,1.90
2022-08-04T23:17:22.460Z,1.80
2022-08-04T23:19:58.291Z,2.17
2022-08-04T23:22:36.967Z,1.80
2022-08-04T23:25:04.797Z,1.80
2022-08-04T23:27:40.288Z,2.38
2022-08-04T23:30:11.228Z,1.75
2022-08-04T23:32:38.559Z,1.73
2022-08-04T23:35:06.669Z,2.13
2022-08-04T23:37:36.668Z,2.00
2022-08-04T23:40:33.246Z,1.90
2022-08-04T23:43:01.975Z,3.72
2022-08-04T23:46:04.594Z,2.42
2022-08-04T23:48:20.942Z,2.75
2022-08-04T23:50:48.529Z,3.30
2022-08-04T23:53:18.468Z,3.47
2022-08-04T23:55:49.344Z,3.17
2022-08-04T23:58:18.949Z,3.38
